createdAt,value
2019-03-27T00:00:53.844Z,4.23
2019-03-27T00:01:53.854Z,4.29
2019-03-27T00:02:53.815Z,4.29
2019-03-27T00:03:53.826Z,4.23
2019-03-27T00:04:53.778Z,4.23
2019-03-27T00:05:53.796Z,4.22
2019-03-27T00:06:53.750Z,4.23
2019-03-27T00:07:53.754Z,4.27
2019-03-27T00:08:53.719Z,4.26
2019-03-27T00:09:53.742Z,4.23
2019-03-27T00:10:53.717Z,4.16
2019-03-27T00:11:53.692Z,4.15
2019-03-27T00:12:53.662Z,4.22
2019-03-27T00:13:53.648Z,4.24
2019-03-27T00:14:53.658Z,4.12
2019-03-27T00:15:53.657Z,4.15
2019-03-27T00:16:53.607Z,4.2
2019-03-27T00:17:53.617Z,4.16
2019-03-27T00:18:53.575Z,4.16
2019-03-27T00:19:53.590Z,4.05
2019-03-27T00:20:53.541Z,4.15
2019-03-27T00:21:53.559Z,4.04
2019-03-27T00:22:53.513Z,4.09
2019-03-27T00:23:53.521Z,4.15
2019-03-27T00:24:53.483Z,4.14
2019-03-27T00:25:53.498Z,4.06
2019-03-27T00:26:53.481Z,4.08
2019-03-27T00:27:53.456Z,4.15
2019-03-27T00:28:53.421Z,4.08
2019-03-27T00:29:53.409Z,4.09
2019-03-27T00:30:53.721Z,4
2019-03-27T00:31:53.396Z,4.08
2019-03-27T00:32:53.397Z,4.12
2019-03-27T00:33:53.349Z,4.12
2019-03-27T00:34:53.130Z,4.09
2019-03-27T00:35:53.319Z,4.22
2019-03-27T00:36:53.344Z,4.18
2019-03-27T00:37:53.295Z,4.27
2019-03-27T00:38:53.061Z,4.3
2019-03-27T00:39:53.272Z,4.29
2019-03-27T00:40:53.282Z,4.3
2019-03-27T00:41:53.230Z,4.4
2019-03-27T00:42:53.249Z,4.44
2019-03-27T00:43:53.222Z,4.36
2019-03-27T00:44:53.188Z,4.44
2019-03-27T00:45:53.170Z,4.54
2019-03-27T00:46:53.184Z,4.54
2019-03-27T00:47:53.160Z,4.54
2019-03-27T00:48:53.162Z,4.52
2019-03-27T00:49:53.112Z,4.58
2019-03-27T00:50:53.126Z,4.54
2019-03-27T00:51:53.100Z,4.54
2019-03-27T00:52:53.101Z,4.52
2019-03-27T00:53:53.061Z,4.52
2019-03-27T00:54:53.071Z,4.58
2019-03-27T00:55:53.038Z,4.5
2019-03-27T00:56:53.041Z,4.5
2019-03-27T00:57:52.996Z,4.6
2019-03-27T00:58:52.983Z,4.5
2019-03-27T00:59:52.983Z,4.63
2019-03-27T01:00:52.751Z,4.66
2019-03-27T01:01:52.968Z,4.69
2019-03-27T01:02:52.924Z,4.6
2019-03-27T01:03:52.928Z,4.69
2019-03-27T01:04:52.894Z,4.66
2019-03-27T01:05:52.911Z,4.65
2019-03-27T01:06:55.677Z,4.75
2019-03-27T01:07:52.869Z,4.67
2019-03-27T01:08:52.868Z,4.72
2019-03-27T01:09:52.821Z,4.73
2019-03-27T01:10:52.838Z,4.82
2019-03-27T01:11:52.805Z,4.84
2019-03-27T01:12:52.821Z,4.84
2019-03-27T01:13:52.762Z,4.84
2019-03-27T01:14:52.749Z,4.86
2019-03-27T01:15:52.751Z,4.89
2019-03-27T01:16:52.759Z,4.89
2019-03-27T01:17:52.739Z,4.91
2019-03-27T01:18:52.691Z,4.94
2019-03-27T01:19:52.690Z,4.94
2019-03-27T01:20:52.659Z,4.99
2019-03-27T01:21:52.678Z,5
2019-03-27T01:22:52.646Z,5
2019-03-27T01:23:52.649Z,5.06
2019-03-27T01:24:52.605Z,5.15
2019-03-27T01:25:52.640Z,5.07
2019-03-27T01:26:52.573Z,5.2
2019-03-27T01:27:52.578Z,5.1
2019-03-27T01:28:52.545Z,5.13
2019-03-27T01:29:52.564Z,5.2
2019-03-27T01:30:52.544Z,5.2
2019-03-27T01:31:52.522Z,5.17
2019-03-27T01:32:52.495Z,5.25
2019-03-27T01:33:52.524Z,5.21
2019-03-27T01:34:52.461Z,5.27
2019-03-27T01:35:52.462Z,5.24
2019-03-27T01:36:52.432Z,5.24
2019-03-27T01:37:52.450Z,5.3
2019-03-27T01:38:52.410Z,5.38
2019-03-27T01:39:52.426Z,5.27
2019-03-27T01:40:52.371Z,5.27
2019-03-27T01:41:52.438Z,5.28
2019-03-27T01:42:52.347Z,5.25
2019-03-27T01:43:52.356Z,5.25
2019-03-27T01:44:52.328Z,5.33
2019-03-27T01:45:57.912Z,5.3
2019-03-27T01:46:52.293Z,5.27
2019-03-27T01:47:52.294Z,5.28
2019-03-27T01:48:52.303Z,5.31
2019-03-27T01:49:52.279Z,5.38
2019-03-27T01:50:52.242Z,5.38
2019-03-27T01:51:52.234Z,5.36
2019-03-27T01:52:52.210Z,5.45
2019-03-27T01:53:52.230Z,5.53
2019-03-27T01:54:52.182Z,5.45
2019-03-27T01:55:52.196Z,5.56
2019-03-27T01:56:52.147Z,5.53
2019-03-27T01:57:52.241Z,5.61
2019-03-27T01:58:52.132Z,5.58
2019-03-27T01:59:52.120Z,5.6
2019-03-27T02:00:52.188Z,5.57
2019-03-27T02:01:52.078Z,5.58
2019-03-27T02:02:52.068Z,5.64
2019-03-27T02:03:52.069Z,5.65
2019-03-27T02:04:51.820Z,5.61
2019-03-27T02:05:52.054Z,5.72
2019-03-27T02:06:52.012Z,5.78
2019-03-27T02:07:52.008Z,5.83
2019-03-27T02:08:51.983Z,5.82
2019-03-27T02:09:52.003Z,5.93
2019-03-27T02:10:51.957Z,5.91
2019-03-27T02:11:51.969Z,5.91
2019-03-27T02:12:51.925Z,5.94
2019-03-27T02:13:51.948Z,5.91
2019-03-27T02:14:51.898Z,5.97
2019-03-27T02:15:51.904Z,5.97
2019-03-27T02:16:51.899Z,5.96
2019-03-27T02:17:51.890Z,5.93
2019-03-27T02:18:51.871Z,5.99
2019-03-27T02:19:51.847Z,5.96
2019-03-27T02:20:51.814Z,5.99
2019-03-27T02:21:51.800Z,5.96
2019-03-27T02:22:51.830Z,5.97
2019-03-27T02:23:51.795Z,5.93
2019-03-27T02:24:51.761Z,5.94
2019-03-27T02:25:51.781Z,5.91
2019-03-27T02:26:51.740Z,5.91
2019-03-27T02:27:51.750Z,5.9
2019-03-27T02:28:51.711Z,5.89
2019-03-27T02:29:51.725Z,5.97
2019-03-27T02:30:51.684Z,5.94
2019-03-27T02:31:51.687Z,6
2019-03-27T02:32:51.429Z,5.99
2019-03-27T02:33:51.680Z,6
2019-03-27T02:34:51.677Z,6.03
2019-03-27T02:35:51.653Z,6.03
2019-03-27T02:36:51.612Z,6.11
2019-03-27T02:37:51.594Z,6.11
2019-03-27T02:38:51.601Z,6.18
2019-03-27T02:39:51.588Z,6.25
2019-03-27T02:40:51.578Z,6.19
2019-03-27T02:41:51.566Z,6.21
2019-03-27T02:42:51.550Z,6.3
2019-03-27T02:43:51.528Z,6.28
2019-03-27T02:44:51.525Z,6.34
2019-03-27T02:45:51.486Z,6.36
2019-03-27T02:46:51.502Z,6.37
2019-03-27T02:47:51.482Z,6.38
2019-03-27T02:48:51.477Z,6.46
2019-03-27T02:49:51.190Z,6.44
2019-03-27T02:50:51.469Z,6.51
2019-03-27T02:51:51.432Z,6.48
2019-03-27T02:52:51.426Z,6.52
2019-03-27T02:53:51.414Z,6.51
2019-03-27T02:54:51.400Z,6.55
2019-03-27T02:55:51.371Z,6.48
2019-03-27T02:56:51.373Z,6.48
2019-03-27T02:57:51.345Z,6.54
2019-03-27T02:58:51.374Z,6.51
2019-03-27T02:59:51.332Z,6.52
2019-03-27T03:00:51.352Z,6.46
2019-03-27T03:01:53.056Z,6.51
2019-03-27T03:02:51.314Z,6.48
2019-03-27T03:03:51.264Z,6.54
2019-03-27T03:04:51.269Z,6.55
2019-03-27T03:05:51.221Z,6.54
2019-03-27T03:06:51.209Z,6.48
2019-03-27T03:07:51.197Z,6.51
2019-03-27T03:08:51.211Z,6.44
2019-03-27T03:09:51.193Z,6.36
2019-03-27T03:10:51.150Z,6.41
2019-03-27T03:11:51.193Z,6.37
2019-03-27T03:12:51.138Z,6.33
2019-03-27T03:13:51.142Z,6.19
2019-03-27T03:14:51.095Z,6.22
2019-03-27T03:15:51.111Z,6.14
2019-03-27T03:16:51.105Z,6.09
2019-03-27T03:17:51.049Z,6.12
2019-03-27T03:18:51.253Z,6.04
2019-03-27T03:19:51.064Z,5.97
2019-03-27T03:20:51.076Z,5.93
2019-03-27T03:21:50.996Z,5.86
2019-03-27T03:22:50.750Z,5.94
2019-03-27T03:23:50.983Z,5.93
2019-03-27T03:24:51.102Z,5.93
2019-03-27T03:25:50.982Z,5.93
2019-03-27T03:26:55.588Z,5.93
2019-03-27T03:27:50.950Z,6.03
2019-03-27T03:28:50.939Z,6.04
2019-03-27T03:29:50.893Z,6.01
2019-03-27T03:30:51.128Z,6.09
2019-03-27T03:31:50.880Z,6.11
2019-03-27T03:32:50.918Z,6.18
2019-03-27T03:33:50.866Z,6.19
2019-03-27T03:34:51.122Z,6.17
2019-03-27T03:35:50.831Z,6.22
2019-03-27T03:36:50.835Z,6.27
2019-03-27T03:37:50.801Z,6.36
2019-03-27T03:38:50.786Z,6.41
2019-03-27T03:39:50.789Z,6.51
2019-03-27T03:40:50.774Z,6.49
2019-03-27T03:41:50.727Z,6.54
2019-03-27T03:42:50.754Z,6.64
2019-03-27T03:43:50.724Z,6.69
2019-03-27T03:44:50.741Z,6.61
2019-03-27T03:45:50.682Z,6.67
2019-03-27T03:47:03.926Z,6.69
2019-03-27T03:47:50.650Z,6.73
2019-03-27T03:48:50.669Z,6.71
2019-03-27T03:49:50.735Z,6.77
2019-03-27T03:50:50.737Z,6.84
2019-03-27T03:51:50.617Z,6.85
2019-03-27T03:52:51.045Z,6.89
2019-03-27T03:53:50.349Z,6.84
2019-03-27T03:54:50.562Z,6.81
2019-03-27T03:55:50.601Z,6.99
2019-03-27T03:56:50.323Z,6.95
2019-03-27T03:57:50.555Z,6.98
2019-03-27T03:58:50.526Z,7.06
2019-03-27T03:59:50.499Z,7.05
2019-03-27T04:00:50.251Z,7.1
2019-03-27T04:01:50.497Z,7.07
2019-03-27T04:02:50.455Z,7.07
2019-03-27T04:03:50.545Z,7.15
2019-03-27T04:04:50.439Z,7.16
2019-03-27T04:05:50.451Z,7.16
2019-03-27T04:06:50.398Z,7.23
2019-03-27T04:07:50.169Z,7.23
2019-03-27T04:08:50.410Z,7.34
2019-03-27T04:09:50.365Z,7.28
2019-03-27T04:10:50.374Z,7.3
2019-03-27T04:11:50.353Z,7.27
2019-03-27T04:12:50.368Z,7.4
2019-03-27T04:13:50.346Z,7.35
2019-03-27T04:14:50.298Z,7.42
2019-03-27T04:15:50.316Z,7.46
2019-03-27T04:16:50.274Z,7.48
2019-03-27T04:17:50.422Z,7.43
2019-03-27T04:18:50.244Z,7.52
2019-03-27T04:19:50.318Z,7.53
2019-03-27T04:20:50.228Z,7.55
2019-03-27T04:21:50.241Z,7.55
2019-03-27T04:22:50.192Z,7.55
2019-03-27T04:23:50.200Z,7.67
2019-03-27T04:24:50.173Z,7.67
2019-03-27T04:26:13.907Z,7.67
2019-03-27T04:26:50.174Z,7.75
2019-03-27T04:27:50.149Z,7.77
2019-03-27T04:28:50.121Z,7.75
2019-03-27T04:29:50.131Z,7.82
2019-03-27T04:30:50.131Z,7.83
2019-03-27T04:31:50.131Z,7.8
2019-03-27T04:32:50.090Z,7.9
2019-03-27T04:33:50.100Z,7.93
2019-03-27T04:34:52.204Z,7.85
2019-03-27T04:35:50.064Z,7.86
2019-03-27T04:36:50.023Z,7.86
2019-03-27T04:37:50.043Z,7.93
2019-03-27T04:38:50.021Z,7.9
2019-03-27T04:39:49.997Z,7.89
2019-03-27T04:40:49.977Z,8.02
2019-03-27T04:41:49.991Z,8.01
2019-03-27T04:42:49.969Z,8
2019-03-27T04:43:49.952Z,7.95
2019-03-27T04:44:49.924Z,7.98
2019-03-27T04:45:49.919Z,7.95
2019-03-27T04:46:49.928Z,7.95
2019-03-27T04:47:49.918Z,8.02
2019-03-27T04:48:49.905Z,8.02
2019-03-27T04:49:49.860Z,8.08
2019-03-27T04:50:49.871Z,8.04
2019-03-27T04:51:49.843Z,8.04
2019-03-27T04:52:49.857Z,8.15
2019-03-27T04:53:49.807Z,8.11
2019-03-27T04:54:49.824Z,8.11
2019-03-27T04:55:49.800Z,8.16
2019-03-27T04:56:49.806Z,8.12
2019-03-27T04:57:49.755Z,8.15
2019-03-27T04:58:49.776Z,8.18
2019-03-27T04:59:49.750Z,8.23
2019-03-27T05:00:49.722Z,8.18
2019-03-27T05:01:49.708Z,8.22
2019-03-27T05:02:49.728Z,8.28
2019-03-27T05:03:49.708Z,8.33
2019-03-27T05:04:49.709Z,8.33
2019-03-27T05:05:49.664Z,8.3
2019-03-27T05:06:49.676Z,8.37
2019-03-27T05:07:49.636Z,8.33
2019-03-27T05:08:49.659Z,8.34
2019-03-27T05:09:49.611Z,8.38
2019-03-27T05:10:49.649Z,8.38
2019-03-27T05:11:49.608Z,8.36
2019-03-27T05:12:49.571Z,8.4
2019-03-27T05:13:49.595Z,8.37
2019-03-27T05:14:49.584Z,8.44
2019-03-27T05:15:49.556Z,8.44
2019-03-27T05:16:49.528Z,8.48
2019-03-27T05:17:51.288Z,8.52
2019-03-27T05:18:49.542Z,8.58
2019-03-27T05:19:49.511Z,8.53
2019-03-27T05:20:49.509Z,8.59
2019-03-27T05:21:49.470Z,8.5
2019-03-27T05:22:49.492Z,8.52
2019-03-27T05:23:49.460Z,8.44
2019-03-27T05:24:49.431Z,8.53
2019-03-27T05:25:49.455Z,8.48
2019-03-27T05:26:49.422Z,8.52
2019-03-27T05:27:49.415Z,8.65
2019-03-27T05:28:49.389Z,8.56
2019-03-27T05:29:49.406Z,8.68
2019-03-27T05:30:49.390Z,8.74
2019-03-27T05:31:49.373Z,8.81
2019-03-27T05:32:49.427Z,8.76
2019-03-27T05:33:49.331Z,8.83
2019-03-27T05:34:49.341Z,8.7
2019-03-27T05:35:49.318Z,8.74
2019-03-27T05:36:49.404Z,8.76
2019-03-27T05:37:49.278Z,8.8
2019-03-27T05:38:49.291Z,8.87
2019-03-27T05:39:49.262Z,8.84
2019-03-27T05:40:49.277Z,8.96
2019-03-27T05:41:49.235Z,8.87
2019-03-27T05:43:02.961Z,8.91
2019-03-27T05:43:49.219Z,9.02
2019-03-27T05:44:49.233Z,9.04
2019-03-27T05:45:49.184Z,9.02
2019-03-27T05:46:49.181Z,8.96
2019-03-27T05:48:01.822Z,9.05
2019-03-27T05:48:49.182Z,9.1
2019-03-27T05:49:49.156Z,9.23
2019-03-27T05:50:49.156Z,9.11
2019-03-27T05:51:49.136Z,9.15
2019-03-27T05:52:49.135Z,9.17
2019-03-27T05:53:49.179Z,9.13
2019-03-27T05:54:49.111Z,9.13
2019-03-27T05:55:49.077Z,9.14
2019-03-27T05:56:49.089Z,9.18
2019-03-27T05:57:49.048Z,9.2
2019-03-27T05:58:49.068Z,9.26
2019-03-27T05:59:49.039Z,9.33
2019-03-27T06:00:49.061Z,9.31
2019-03-27T06:01:49.003Z,9.32
2019-03-27T06:02:48.995Z,9.38
2019-03-27T06:03:48.995Z,9.4
2019-03-27T06:04:49.004Z,9.4
2019-03-27T06:05:48.993Z,9.33
2019-03-27T06:06:48.953Z,9.39
2019-03-27T06:07:48.965Z,9.35
2019-03-27T06:08:48.925Z,9.39
2019-03-27T06:09:48.957Z,9.4
2019-03-27T06:10:48.906Z,9.46
2019-03-27T06:11:48.925Z,9.36
2019-03-27T06:12:48.877Z,9.46
2019-03-27T06:13:48.901Z,9.47
2019-03-27T06:14:48.864Z,9.47
2019-03-27T06:15:50.083Z,9.53
2019-03-27T06:16:48.868Z,9.48
2019-03-27T06:17:48.824Z,9.48
2019-03-27T06:18:48.819Z,9.48
2019-03-27T06:19:48.823Z,9.47
2019-03-27T06:20:48.826Z,9.48
2019-03-27T06:21:48.813Z,9.42
2019-03-27T06:22:48.776Z,9.48
2019-03-27T06:23:48.835Z,9.47
2019-03-27T06:24:48.744Z,9.46
2019-03-27T06:25:48.770Z,9.48
2019-03-27T06:26:48.727Z,9.54
2019-03-27T06:27:48.743Z,9.46
2019-03-27T06:28:48.700Z,9.5
2019-03-27T06:29:48.726Z,9.5
2019-03-27T06:30:48.679Z,9.5
2019-03-27T06:31:48.693Z,9.58
2019-03-27T06:32:48.661Z,9.54
2019-03-27T06:33:48.690Z,9.58
2019-03-27T06:34:48.660Z,9.56
2019-03-27T06:35:48.641Z,9.61
2019-03-27T06:36:48.612Z,9.58
2019-03-27T06:37:48.602Z,9.66
2019-03-27T06:38:48.617Z,9.68
2019-03-27T06:39:48.598Z,9.78
2019-03-27T06:40:48.578Z,9.61
2019-03-27T06:41:48.589Z,9.69
2019-03-27T06:42:48.558Z,9.83
2019-03-27T06:43:48.572Z,9.86
2019-03-27T06:44:48.530Z,9.81
2019-03-27T06:45:48.549Z,9.87
2019-03-27T06:46:48.507Z,9.89
2019-03-27T06:47:48.511Z,9.89
2019-03-27T06:48:48.482Z,9.94
2019-03-27T06:49:48.511Z,9.91
2019-03-27T06:50:48.497Z,10.04
2019-03-27T06:51:48.466Z,9.96
2019-03-27T06:52:48.436Z,10.01
2019-03-27T06:53:48.438Z,9.96
2019-03-27T06:54:48.443Z,10.05
2019-03-27T06:55:48.422Z,10.15
2019-03-27T06:56:48.426Z,10.05
2019-03-27T06:57:48.381Z,10.11
2019-03-27T06:58:59.302Z,10.12
2019-03-27T06:59:48.364Z,10.22
2019-03-27T07:00:48.390Z,10.17
2019-03-27T07:01:48.345Z,10.15
2019-03-27T07:02:48.366Z,10.23
2019-03-27T07:03:48.334Z,10.3
2019-03-27T07:04:48.344Z,10.32
2019-03-27T07:05:48.302Z,10.34
2019-03-27T07:06:48.313Z,10.26
2019-03-27T07:07:48.297Z,10.2
2019-03-27T07:08:48.270Z,10.25
2019-03-27T07:09:48.262Z,10.25
2019-03-27T07:10:48.272Z,10.17
2019-03-27T07:11:48.254Z,10.11
2019-03-27T07:12:48.271Z,10.14
2019-03-27T07:13:48.213Z,10.12
2019-03-27T07:14:48.243Z,10.07
2019-03-27T07:15:48.263Z,10.08
2019-03-27T07:16:48.213Z,10.15
2019-03-27T07:17:48.168Z,10.11
2019-03-27T07:18:48.203Z,10.07
2019-03-27T07:19:48.167Z,10.11
2019-03-27T07:20:48.182Z,10.07
2019-03-27T07:21:48.127Z,10.07
2019-03-27T07:22:48.128Z,10.01
2019-03-27T07:23:48.120Z,10.08
2019-03-27T07:24:48.133Z,10.11
2019-03-27T07:25:48.125Z,10.05
2019-03-27T07:26:48.083Z,10.17
2019-03-27T07:27:48.082Z,10.26
2019-03-27T07:28:48.060Z,10.4
2019-03-27T07:29:48.082Z,10.42
2019-03-27T07:30:48.041Z,10.47
2019-03-27T07:31:48.043Z,10.55
2019-03-27T07:32:48.053Z,10.63
2019-03-27T07:33:48.004Z,10.78
2019-03-27T07:34:48.028Z,10.97
2019-03-27T07:35:47.999Z,10.97
2019-03-27T07:36:48.003Z,11.15
2019-03-27T07:37:47.965Z,11.28
2019-03-27T07:38:47.957Z,11.29
2019-03-27T07:39:47.957Z,11.47
2019-03-27T07:40:48.041Z,11.55
2019-03-27T07:41:47.956Z,11.7
2019-03-27T07:42:47.928Z,11.69
2019-03-27T07:43:47.951Z,11.75
2019-03-27T07:44:47.899Z,11.83
2019-03-27T07:45:47.920Z,11.99
2019-03-27T07:46:47.920Z,12.07
2019-03-27T07:47:50.613Z,12.13
2019-03-27T07:48:58.087Z,12.21
2019-03-27T07:49:47.888Z,12.32
2019-03-27T07:50:47.842Z,12.45
2019-03-27T07:51:47.850Z,12.56
2019-03-27T07:52:47.824Z,12.6
2019-03-27T07:53:47.846Z,12.75
2019-03-27T07:54:47.836Z,12.75
2019-03-27T07:55:47.818Z,12.85
2019-03-27T07:56:47.799Z,12.89
2019-03-27T07:57:47.815Z,13.03
2019-03-27T07:58:47.776Z,13.01
2019-03-27T07:59:47.779Z,13.04
2019-03-27T08:00:47.779Z,13.08
2019-03-27T08:01:47.783Z,13.14
2019-03-27T08:02:47.748Z,13.22
2019-03-27T08:03:47.767Z,13.25
2019-03-27T08:04:47.728Z,13.45
2019-03-27T08:05:47.750Z,13.42
2019-03-27T08:06:47.715Z,13.51
2019-03-27T08:07:47.744Z,13.52
2019-03-27T08:08:47.698Z,13.48
2019-03-27T08:09:47.720Z,13.59
2019-03-27T08:10:47.781Z,13.62
2019-03-27T08:11:47.687Z,13.51
2019-03-27T08:12:47.666Z,13.6
2019-03-27T08:13:47.662Z,13.59
2019-03-27T08:14:47.684Z,13.64
2019-03-27T08:15:47.657Z,13.71
2019-03-27T08:16:47.671Z,13.84
2019-03-27T08:17:47.634Z,13.88
2019-03-27T08:18:47.647Z,13.91
2019-03-27T08:19:47.609Z,14.02
2019-03-27T08:20:47.639Z,14.15
2019-03-27T08:21:47.597Z,14.18
2019-03-27T08:22:47.368Z,14.22
2019-03-27T08:23:47.601Z,14.22
2019-03-27T08:24:47.589Z,14.28
2019-03-27T08:25:47.602Z,14.29
2019-03-27T08:26:47.590Z,14.36
2019-03-27T08:27:47.578Z,14.27
2019-03-27T08:28:47.548Z,14.29
2019-03-27T08:29:47.545Z,14.25
2019-03-27T08:30:47.557Z,14.43
2019-03-27T08:31:47.545Z,14.52
2019-03-27T08:32:47.551Z,14.54
2019-03-27T08:33:47.510Z,14.62
2019-03-27T08:34:47.607Z,14.69
2019-03-27T08:35:47.352Z,14.64
2019-03-27T08:36:47.494Z,14.86
2019-03-27T08:37:47.524Z,14.91
2019-03-27T08:38:47.483Z,14.94
2019-03-27T08:39:47.511Z,15.02
2019-03-27T08:40:47.479Z,15.16
2019-03-27T08:41:47.490Z,15.19
2019-03-27T08:42:47.480Z,15.28
2019-03-27T08:43:47.466Z,15.34
2019-03-27T08:44:47.448Z,15.43
2019-03-27T08:45:47.453Z,15.53
2019-03-27T08:46:47.464Z,15.68
2019-03-27T08:47:47.450Z,15.82
2019-03-27T08:48:47.429Z,16.01
2019-03-27T08:49:47.447Z,16.02
2019-03-27T08:50:47.422Z,16.21
2019-03-27T08:51:47.443Z,16.3
2019-03-27T08:52:47.492Z,16.33
2019-03-27T08:53:47.426Z,16.41
2019-03-27T08:54:47.402Z,16.52
2019-03-27T08:55:47.153Z,16.57
2019-03-27T08:56:47.382Z,16.56
2019-03-27T08:57:47.159Z,16.61
2019-03-27T08:58:47.396Z,16.66
2019-03-27T08:59:47.386Z,16.71
2019-03-27T09:00:47.379Z,16.79
2019-03-27T09:01:47.359Z,16.79
2019-03-27T09:02:47.380Z,16.79
2019-03-27T09:03:47.368Z,16.75
2019-03-27T09:04:47.371Z,16.73
2019-03-27T09:05:47.336Z,16.7
2019-03-27T09:06:47.359Z,16.71
2019-03-27T09:07:47.329Z,16.82
2019-03-27T09:08:47.352Z,16.82
2019-03-27T09:09:47.317Z,16.93
2019-03-27T09:10:47.347Z,16.89
2019-03-27T09:11:47.339Z,16.79
2019-03-27T09:12:47.334Z,16.75
2019-03-27T09:13:47.301Z,16.81
2019-03-27T09:14:47.324Z,16.81
2019-03-27T09:15:47.312Z,16.81
2019-03-27T09:16:47.293Z,16.81
2019-03-27T09:17:47.314Z,16.78
2019-03-27T09:18:47.308Z,16.76
2019-03-27T09:19:47.294Z,16.66
2019-03-27T09:20:47.306Z,16.45
2019-03-27T09:21:47.264Z,16.25
2019-03-27T09:22:47.294Z,16.25
2019-03-27T09:23:50.487Z,16.17
2019-03-27T09:24:47.287Z,16.09
2019-03-27T09:25:47.255Z,16.11
2019-03-27T09:26:47.272Z,15.97
2019-03-27T09:27:47.254Z,16
2019-03-27T09:28:47.261Z,16.01
2019-03-27T09:29:47.228Z,15.9
2019-03-27T09:30:47.220Z,15.87
2019-03-27T09:31:50.049Z,15.75
2019-03-27T09:32:47.227Z,15.6
2019-03-27T09:33:47.240Z,15.59
2019-03-27T09:34:47.200Z,15.54
2019-03-27T09:35:47.395Z,15.41
2019-03-27T09:36:47.207Z,15.41
2019-03-27T09:37:47.213Z,15.32
2019-03-27T09:38:47.177Z,15.21
2019-03-27T09:39:47.203Z,15.01
2019-03-27T09:40:47.183Z,15.07
2019-03-27T09:41:47.180Z,14.98
2019-03-27T09:42:47.187Z,15.06
2019-03-27T09:43:47.179Z,14.99
2019-03-27T09:44:47.166Z,14.95
2019-03-27T09:45:47.139Z,14.95
2019-03-27T09:46:47.134Z,14.77
2019-03-27T09:47:47.156Z,14.88
2019-03-27T09:48:47.154Z,14.8
2019-03-27T09:49:54.014Z,14.81
2019-03-27T09:50:47.109Z,14.88
2019-03-27T09:51:47.128Z,14.86
2019-03-27T09:52:47.099Z,14.98
2019-03-27T09:53:47.123Z,15.03
2019-03-27T09:54:47.089Z,14.99
2019-03-27T09:55:47.107Z,15.16
2019-03-27T09:56:47.085Z,15.17
2019-03-27T09:57:47.091Z,15.21
2019-03-27T09:58:47.053Z,15.21
2019-03-27T09:59:47.058Z,15.29
2019-03-27T10:00:47.061Z,15.35
2019-03-27T10:01:47.150Z,15.34
2019-03-27T10:02:47.064Z,15.29
2019-03-27T10:03:47.031Z,15.44
2019-03-27T10:04:47.036Z,15.41
2019-03-27T10:05:47.045Z,15.44
2019-03-27T10:06:48.450Z,15.43
2019-03-27T10:07:46.988Z,15.34
2019-03-27T10:08:46.978Z,15.39
2019-03-27T10:09:50.196Z,15.38
2019-03-27T10:10:46.988Z,15.39
2019-03-27T10:11:46.971Z,15.35
2019-03-27T10:12:46.963Z,15.41
2019-03-27T10:13:46.953Z,15.41
2019-03-27T10:14:50.053Z,15.53
2019-03-27T10:15:47.017Z,15.53
2019-03-27T10:16:46.932Z,15.65
2019-03-27T10:17:46.925Z,15.75
2019-03-27T10:18:49.661Z,15.8
2019-03-27T10:19:46.927Z,15.9
2019-03-27T10:20:46.906Z,16.04
2019-03-27T10:21:46.901Z,16.04
2019-03-27T10:22:46.899Z,16.25
2019-03-27T10:23:46.894Z,16.33
2019-03-27T10:24:46.889Z,16.35
2019-03-27T10:25:46.959Z,16.35
2019-03-27T10:26:47.604Z,16.38
2019-03-27T10:27:46.873Z,16.28
2019-03-27T10:28:46.871Z,16.27
2019-03-27T10:29:46.870Z,16.24
2019-03-27T10:30:46.855Z,16.28
2019-03-27T10:31:46.852Z,16.21
2019-03-27T10:32:46.848Z,16.07
2019-03-27T10:33:46.837Z,15.97
2019-03-27T10:34:46.831Z,15.94
2019-03-27T10:35:46.823Z,15.78
2019-03-27T10:36:46.820Z,15.71
2019-03-27T10:37:46.878Z,15.49
2019-03-27T10:38:46.955Z,15.51
2019-03-27T10:39:46.804Z,15.36
2019-03-27T10:40:46.798Z,15.36
2019-03-27T10:41:46.788Z,15.19
2019-03-27T10:42:46.792Z,15.17
2019-03-27T10:43:46.777Z,15.02
2019-03-27T10:44:46.774Z,14.89
2019-03-27T10:45:46.781Z,14.91
2019-03-27T10:46:46.761Z,14.86
2019-03-27T10:47:46.753Z,14.84
2019-03-27T10:48:57.561Z,14.84
2019-03-27T10:49:46.501Z,14.78
2019-03-27T10:50:46.748Z,14.72
2019-03-27T10:51:46.727Z,14.77
2019-03-27T10:52:46.804Z,14.75
2019-03-27T10:53:46.723Z,14.77
2019-03-27T10:54:46.714Z,14.8
2019-03-27T10:55:46.702Z,14.81
2019-03-27T10:56:46.696Z,14.83
2019-03-27T10:57:46.692Z,14.73
2019-03-27T10:58:46.698Z,14.72
2019-03-27T10:59:46.679Z,14.62
2019-03-27T11:00:46.671Z,14.75
2019-03-27T11:01:46.667Z,14.69
2019-03-27T11:02:46.659Z,14.77
2019-03-27T11:03:46.650Z,14.72
2019-03-27T11:04:46.642Z,14.84
2019-03-27T11:05:46.642Z,14.84
2019-03-27T11:06:46.639Z,14.91
2019-03-27T11:07:46.623Z,14.89
2019-03-27T11:08:46.627Z,14.86
2019-03-27T11:09:46.611Z,14.89
2019-03-27T11:10:46.608Z,14.84
2019-03-27T11:11:46.598Z,14.84
2019-03-27T11:12:46.590Z,14.84
2019-03-27T11:13:46.589Z,14.7
2019-03-27T11:14:46.578Z,14.73
2019-03-27T11:15:46.573Z,14.77
2019-03-27T11:16:46.567Z,14.75
2019-03-27T11:17:46.559Z,14.58
2019-03-27T11:18:46.314Z,14.64
2019-03-27T11:19:46.548Z,14.65
2019-03-27T11:20:46.541Z,14.77
2019-03-27T11:21:46.537Z,14.88
2019-03-27T11:22:46.523Z,14.89
2019-03-27T11:23:46.519Z,15.02
2019-03-27T11:24:46.514Z,15.11
2019-03-27T11:25:46.813Z,15.23
2019-03-27T11:26:46.500Z,15.29
2019-03-27T11:27:46.500Z,15.36
2019-03-27T11:28:46.490Z,15.32
2019-03-27T11:29:46.481Z,15.28
2019-03-27T11:30:48.313Z,15.28
2019-03-27T11:31:46.470Z,15.2
2019-03-27T11:32:46.662Z,15.21
2019-03-27T11:33:46.547Z,15.23
2019-03-27T11:34:46.449Z,15.19
2019-03-27T11:35:46.447Z,15.16
2019-03-27T11:39:32.762Z,15.06
2019-03-27T11:40:32.760Z,15.06
2019-03-27T11:41:32.751Z,15.01
2019-03-27T11:42:32.753Z,15.16
2019-03-27T11:43:32.738Z,15.13
2019-03-27T11:44:32.730Z,15.14
2019-03-27T11:45:32.726Z,15.17
2019-03-27T11:46:34.685Z,15.25
2019-03-27T11:47:32.714Z,15.31
2019-03-27T11:48:32.712Z,15.32
2019-03-27T11:49:32.734Z,15.34
2019-03-27T11:50:46.410Z,15.47
2019-03-27T11:51:32.690Z,15.46
2019-03-27T11:52:34.498Z,15.44
2019-03-27T11:53:32.674Z,15.44
2019-03-27T11:54:32.678Z,15.39
2019-03-27T11:55:32.690Z,15.38
2019-03-27T11:56:32.669Z,15.44
2019-03-27T11:57:32.649Z,15.49
2019-03-27T11:58:32.646Z,15.41
2019-03-27T11:59:32.676Z,15.41
2019-03-27T12:00:32.635Z,15.5
2019-03-27T12:01:46.315Z,15.38
2019-03-27T12:02:32.616Z,15.5
2019-03-27T12:03:32.616Z,15.51
2019-03-27T12:04:32.610Z,15.51
2019-03-27T12:05:32.607Z,15.62
2019-03-27T12:06:32.599Z,15.6
2019-03-27T12:07:32.596Z,15.54
2019-03-27T12:08:32.582Z,15.56
2019-03-27T12:09:32.573Z,15.49
2019-03-27T12:10:32.571Z,15.62
2019-03-27T12:11:32.564Z,15.47
2019-03-27T12:12:32.561Z,15.44
2019-03-27T12:13:32.623Z,15.43
2019-03-27T12:14:32.557Z,15.47
2019-03-27T12:15:32.547Z,15.47
2019-03-27T12:16:32.540Z,15.43
2019-03-27T12:17:32.527Z,15.41
2019-03-27T12:18:34.557Z,15.31
2019-03-27T12:19:32.519Z,15.32
2019-03-27T12:20:32.600Z,15.31
2019-03-27T12:21:32.509Z,15.39
2019-03-27T12:22:32.503Z,15.43
2019-03-27T12:23:32.494Z,15.56
2019-03-27T12:24:33.584Z,15.57
2019-03-27T12:25:32.490Z,15.64
2019-03-27T12:26:32.484Z,15.74
2019-03-27T12:27:32.473Z,15.84
2019-03-27T12:28:32.460Z,15.97
2019-03-27T12:29:32.552Z,16.07
2019-03-27T12:30:32.460Z,16.04
2019-03-27T12:31:32.468Z,16.11
2019-03-27T12:32:32.484Z,16.07
2019-03-27T12:33:32.435Z,16.05
2019-03-27T12:34:32.430Z,16.09
2019-03-27T12:35:32.428Z,16.07
2019-03-27T12:36:32.475Z,16.05
2019-03-27T12:37:32.412Z,16.08
2019-03-27T12:38:32.410Z,15.97
2019-03-27T12:39:32.408Z,16.04
2019-03-27T12:40:32.392Z,15.97
2019-03-27T12:41:35.397Z,16
2019-03-27T12:42:32.381Z,16.04
2019-03-27T12:43:32.377Z,16.04
2019-03-27T12:44:32.372Z,16.14
2019-03-27T12:45:32.368Z,16.17
2019-03-27T12:46:32.367Z,16.21
2019-03-27T12:47:32.118Z,16.24
2019-03-27T12:48:32.353Z,16.38
2019-03-27T12:49:32.348Z,16.57
2019-03-27T12:50:32.339Z,16.6
2019-03-27T12:51:32.341Z,16.67
2019-03-27T12:52:32.384Z,16.7
2019-03-27T12:53:32.327Z,16.76
2019-03-27T12:54:32.081Z,16.96
2019-03-27T12:55:32.312Z,16.97
2019-03-27T12:56:32.307Z,17
2019-03-27T12:57:32.312Z,16.97
2019-03-27T12:58:32.298Z,16.93
2019-03-27T12:59:32.293Z,16.85
2019-03-27T13:00:32.285Z,16.76
2019-03-27T13:01:32.044Z,16.68
2019-03-27T13:02:32.295Z,16.64
2019-03-27T13:03:32.279Z,16.61
2019-03-27T13:04:32.276Z,16.58
2019-03-27T13:05:32.269Z,16.61
2019-03-27T13:06:32.259Z,16.64
2019-03-27T13:07:32.282Z,16.58
2019-03-27T13:08:32.250Z,16.67
2019-03-27T13:09:32.248Z,16.67
2019-03-27T13:10:32.241Z,16.68
2019-03-27T13:11:32.238Z,16.66